createdAt,value
2023-03-03T00:00:02.080Z,37.41
2023-03-03T00:01:05.354Z,37.90
2023-03-03T00:02:07.167Z,37.48
2023-03-03T00:03:12.019Z,37.96
2023-03-03T00:04:14.861Z,37.86
2023-03-03T00:05:18.546Z,37.97
2023-03-03T00:06:21.885Z,38.00
2023-03-03T00:07:23.730Z,37.95
2023-03-03T00:08:28.379Z,38.06
2023-03-03T00:09:30.181Z,38.04
2023-03-03T00:10:33.156Z,38.19
2023-03-03T00:11:34.867Z,38.21
2023-03-03T00:12:45.258Z,38.00
2023-03-03T00:13:48.713Z,37.91
2023-03-03T00:14:51.401Z,38.11
2023-03-03T00:15:54.233Z,38.21
2023-03-03T00:16:57.826Z,37.83
2023-03-03T00:17:59.718Z,38.01
2023-03-03T00:19:02.655Z,38.34
2023-03-03T00:20:26.608Z,38.12
2023-03-03T00:21:33.271Z,38.39
2023-03-03T00:22:36.525Z,38.61
2023-03-03T00:23:42.578Z,38.30
2023-03-03T00:24:44.293Z,38.43
2023-03-03T00:25:48.013Z,38.41
2023-03-03T00:26:54.477Z,38.36
2023-03-03T00:27:56.821Z,38.50
2023-03-03T00:28:59.565Z,38.75
2023-03-03T00:30:02.353Z,38.67
2023-03-03T00:31:15.469Z,38.56
2023-03-03T00:32:26.743Z,39.04
2023-03-03T00:33:33.082Z,39.25
2023-03-03T00:34:38.052Z,39.19
2023-03-03T00:35:39.825Z,38.89
2023-03-03T00:36:43.314Z,39.32
2023-03-03T00:37:45.118Z,38.85
2023-03-03T00:38:49.328Z,39.14
2023-03-03T00:39:51.064Z,39.46
2023-03-03T00:40:53.765Z,39.27
2023-03-03T00:41:55.773Z,39.23
2023-03-03T00:43:02.883Z,39.22
2023-03-03T00:44:30.268Z,39.60
2023-03-03T00:45:36.410Z,39.42
2023-03-03T00:46:38.246Z,39.28
2023-03-03T00:47:44.569Z,39.71
2023-03-03T00:48:50.113Z,39.50
2023-03-03T00:49:53.493Z,39.88
2023-03-03T00:50:57.420Z,39.94
2023-03-03T00:51:59.115Z,39.78
2023-03-03T00:53:07.429Z,40.07
2023-03-03T00:54:10.518Z,40.04
2023-03-03T00:55:13.480Z,40.46
2023-03-03T00:56:15.791Z,40.45
2023-03-03T00:57:18.526Z,40.18
2023-03-03T00:58:21.706Z,40.51
2023-03-03T00:59:24.396Z,40.20
2023-03-03T01:00:26.163Z,40.82
2023-03-03T01:01:29.150Z,40.27
2023-03-03T01:02:31.236Z,40.34
2023-03-03T01:03:33.956Z,40.52
2023-03-03T01:04:35.649Z,41.07
2023-03-03T01:05:38.510Z,41.16
2023-03-03T01:06:40.238Z,40.64
2023-03-03T01:07:43.163Z,40.58
2023-03-03T01:08:45.872Z,41.17
2023-03-03T01:09:49.312Z,41.33
2023-03-03T01:10:53.522Z,41.29
2023-03-03T01:11:55.442Z,41.29
2023-03-03T01:12:58.396Z,40.54
2023-03-03T01:14:00.142Z,41.44
2023-03-03T01:15:03.283Z,40.66
2023-03-03T01:16:05.820Z,41.23
2023-03-03T01:17:08.912Z,40.99
2023-03-03T01:18:10.837Z,41.32
2023-03-03T01:19:13.526Z,41.55
2023-03-03T01:20:15.555Z,41.18
2023-03-03T01:21:18.294Z,41.46
2023-03-03T01:22:19.995Z,41.58
2023-03-03T01:23:22.808Z,41.30
2023-03-03T01:24:24.611Z,41.27
2023-03-03T01:25:28.800Z,41.35
2023-03-03T01:26:31.476Z,41.35
2023-03-03T01:27:36.018Z,41.04
2023-03-03T01:28:37.845Z,41.51
2023-03-03T01:29:40.525Z,41.26
2023-03-03T01:30:42.227Z,41.33
2023-03-03T01:31:45.056Z,41.01
2023-03-03T01:32:46.725Z,40.95
2023-03-03T01:33:49.520Z,41.36
2023-03-03T01:34:51.490Z,41.21
2023-03-03T01:35:54.285Z,40.76
2023-03-03T01:36:56.208Z,41.25
2023-03-03T01:37:59.448Z,41.22
2023-03-03T01:39:01.333Z,41.41
2023-03-03T01:40:05.524Z,41.18
2023-03-03T01:41:08.572Z,41.50
2023-03-03T01:42:11.197Z,40.95
2023-03-03T01:43:15.213Z,41.45
2023-03-03T01:44:18.562Z,41.36
2023-03-03T01:45:22.486Z,41.09
2023-03-03T01:46:34.638Z,41.78
2023-03-03T01:47:36.322Z,41.40
2023-03-03T01:48:40.916Z,41.35
2023-03-03T01:49:45.249Z,41.90
2023-03-03T01:50:50.688Z,42.08
2023-03-03T01:51:54.719Z,42.04
2023-03-03T01:52:59.351Z,41.48
2023-03-03T01:54:03.363Z,42.00
2023-03-03T01:55:10.117Z,41.79
2023-03-03T01:56:14.486Z,41.84
2023-03-03T01:57:19.978Z,41.75
2023-03-03T01:58:23.779Z,41.46
2023-03-03T01:59:29.661Z,41.72
2023-03-03T02:00:32.170Z,41.46
2023-03-03T02:01:35.116Z,41.48
2023-03-03T02:02:37.133Z,41.64
2023-03-03T02:03:39.953Z,41.96
2023-03-03T02:04:41.681Z,41.65
2023-03-03T02:05:44.992Z,41.68
2023-03-03T02:06:51.163Z,41.47
2023-03-03T02:07:54.207Z,41.58
2023-03-03T02:08:59.920Z,41.65
2023-03-03T02:10:07.214Z,41.67
2023-03-03T02:11:09.123Z,41.93
2023-03-03T02:12:15.577Z,41.66
2023-03-03T02:13:18.392Z,41.52
2023-03-03T02:14:20.115Z,41.37
2023-03-03T02:15:24.720Z,41.68
2023-03-03T02:16:28.720Z,41.64
2023-03-03T02:17:31.427Z,41.42
2023-03-03T02:18:33.541Z,41.97
2023-03-03T02:19:43.981Z,42.02
2023-03-03T02:20:51.575Z,42.08
2023-03-03T02:21:54.366Z,42.15
2023-03-03T02:23:00.002Z,42.06
2023-03-03T02:24:07.239Z,42.16
2023-03-03T02:25:11.790Z,41.46
2023-03-03T02:26:17.682Z,41.58
2023-03-03T02:27:19.677Z,42.11
2023-03-03T02:28:22.556Z,42.17
2023-03-03T02:29:24.333Z,41.62
2023-03-03T02:30:27.099Z,41.77
2023-03-03T02:31:30.447Z,41.84
2023-03-03T02:32:33.263Z,42.27
2023-03-03T02:33:35.088Z,41.64
2023-03-03T02:34:47.378Z,42.22
2023-03-03T02:35:49.466Z,42.25
2023-03-03T02:36:52.157Z,41.63
2023-03-03T02:37:53.923Z,42.17
2023-03-03T02:39:00.911Z,42.29
2023-03-03T02:40:03.145Z,41.90
2023-03-03T02:41:12.869Z,41.68
2023-03-03T02:42:19.968Z,42.45
2023-03-03T02:43:23.761Z,41.75
2023-03-03T02:44:28.077Z,42.50
2023-03-03T02:45:29.896Z,41.73
2023-03-03T02:46:35.585Z,42.22
2023-03-03T02:47:37.265Z,42.16
2023-03-03T02:48:39.994Z,41.86
2023-03-03T02:49:42.964Z,42.36
2023-03-03T02:50:45.707Z,41.92
2023-03-03T02:51:51.607Z,42.22
2023-03-03T02:52:53.299Z,42.32
2023-03-03T02:53:56.077Z,41.88
2023-03-03T02:54:57.726Z,42.55
2023-03-03T02:56:00.382Z,42.44
2023-03-03T02:57:02.334Z,41.93
2023-03-03T02:58:06.415Z,42.44
2023-03-03T02:59:08.748Z,42.30
2023-03-03T03:00:12.624Z,42.43
2023-03-03T03:01:14.392Z,42.42
2023-03-03T03:02:19.294Z,42.22
2023-03-03T03:03:21.165Z,42.76
2023-03-03T03:04:25.485Z,42.43
2023-03-03T03:05:27.232Z,42.78
2023-03-03T03:06:29.939Z,43.00
2023-03-03T03:07:31.660Z,43.09
2023-03-03T03:08:34.467Z,43.22
2023-03-03T03:09:36.122Z,43.51
2023-03-03T03:10:38.954Z,43.34
2023-03-03T03:11:41.512Z,42.46
2023-03-03T03:12:44.239Z,42.57
2023-03-03T03:13:47.376Z,43.18
2023-03-03T03:14:50.100Z,42.92
2023-03-03T03:15:51.930Z,43.59
2023-03-03T03:16:54.827Z,43.21
2023-03-03T03:17:56.612Z,43.82
2023-03-03T03:18:59.881Z,43.37
2023-03-03T03:20:01.579Z,43.80
2023-03-03T03:21:09.559Z,43.58
2023-03-03T03:22:11.259Z,43.36
2023-03-03T03:23:14.808Z,43.10
2023-03-03T03:24:16.614Z,43.66
2023-03-03T03:25:19.413Z,43.24
2023-03-03T03:26:21.485Z,43.60
2023-03-03T03:27:24.300Z,43.68
2023-03-03T03:28:26.116Z,43.54
2023-03-03T03:29:30.256Z,43.58
2023-03-03T03:30:32.176Z,43.91
2023-03-03T03:31:34.941Z,43.74
2023-03-03T03:32:36.630Z,43.21
2023-03-03T03:33:39.359Z,44.10
2023-03-03T03:34:41.184Z,43.15
2023-03-03T03:35:45.689Z,44.00
2023-03-03T03:36:47.490Z,43.71
2023-03-03T03:37:50.222Z,43.63
2023-03-03T03:38:52.324Z,43.35
2023-03-03T03:39:56.237Z,43.27
2023-03-03T03:40:58.305Z,44.05
2023-03-03T03:42:01.125Z,43.48
2023-03-03T03:43:02.863Z,43.71
2023-03-03T03:44:05.960Z,43.41
2023-03-03T03:45:10.264Z,43.43
2023-03-03T03:46:14.766Z,44.07
2023-03-03T03:47:16.454Z,44.20
2023-03-03T03:48:19.988Z,43.58
2023-03-03T03:49:21.832Z,43.41
2023-03-03T03:50:24.604Z,44.07
2023-03-03T03:51:26.503Z,43.93
2023-03-03T03:52:29.201Z,44.31
2023-03-03T03:53:31.226Z,44.04
2023-03-03T03:54:33.990Z,43.93
2023-03-03T03:55:35.703Z,44.00
2023-03-03T03:56:38.418Z,44.14
2023-03-03T03:57:40.164Z,44.05
2023-03-03T03:58:43.207Z,44.16
2023-03-03T03:59:44.880Z,45.08
2023-03-03T04:00:49.287Z,44.59
2023-03-03T04:01:51.047Z,45.05
2023-03-03T04:02:54.090Z,45.00
2023-03-03T04:03:55.920Z,44.42
2023-03-03T04:04:58.566Z,44.86
2023-03-03T04:06:00.283Z,44.82
2023-03-03T04:07:02.942Z,44.91
2023-03-03T04:08:04.780Z,44.39
2023-03-03T04:09:07.451Z,44.20
2023-03-03T04:10:10.346Z,45.26
2023-03-03T04:11:12.986Z,44.72
2023-03-03T04:12:14.635Z,44.54
2023-03-03T04:13:17.461Z,45.31
2023-03-03T04:14:19.138Z,44.73
2023-03-03T04:15:21.856Z,46.02
2023-03-03T04:16:25.073Z,45.47
2023-03-03T04:17:27.729Z,45.63
2023-03-03T04:18:29.514Z,45.85
2023-03-03T04:19:32.205Z,46.32
2023-03-03T04:20:33.966Z,46.46
2023-03-03T04:21:36.628Z,46.72
2023-03-03T04:22:38.329Z,46.79
2023-03-03T04:23:41.329Z,46.30
2023-03-03T04:24:43.090Z,46.10
2023-03-03T04:25:47.930Z,46.26
2023-03-03T04:26:49.658Z,46.96
2023-03-03T04:27:53.114Z,47.16
2023-03-03T04:28:55.808Z,46.59
2023-03-03T04:29:57.491Z,46.27
2023-03-03T04:31:00.597Z,47.03
2023-03-03T04:32:03.934Z,47.41
2023-03-03T04:33:06.667Z,47.22
2023-03-03T04:34:08.377Z,46.72
2023-03-03T04:35:11.752Z,47.36
2023-03-03T04:36:14.437Z,46.58
2023-03-03T04:37:16.275Z,47.16
2023-03-03T04:38:19.034Z,47.67
2023-03-03T04:39:20.747Z,47.16
2023-03-03T04:40:23.534Z,47.28
2023-03-03T04:41:26.395Z,46.78
2023-03-03T04:42:28.280Z,47.48
2023-03-03T04:43:30.979Z,46.77
2023-03-03T04:44:32.658Z,47.09
2023-03-03T04:45:35.324Z,47.32
2023-03-03T04:46:37.129Z,46.92
2023-03-03T04:47:41.288Z,47.31
2023-03-03T04:48:42.955Z,47.94
2023-03-03T04:49:45.782Z,48.11
2023-03-03T04:50:47.630Z,47.21
2023-03-03T04:51:50.353Z,48.03
2023-03-03T04:52:52.103Z,48.23
2023-03-03T04:53:54.795Z,48.15
2023-03-03T04:54:56.663Z,48.49
2023-03-03T04:55:59.367Z,47.93
2023-03-03T04:57:01.081Z,48.68
2023-03-03T04:58:04.266Z,48.11
2023-03-03T04:59:06.079Z,48.57
2023-03-03T05:00:09.768Z,48.18
2023-03-03T05:01:13.466Z,48.43
2023-03-03T05:02:16.815Z,48.39
2023-03-03T05:03:19.894Z,48.38
2023-03-03T05:04:22.584Z,48.68
2023-03-03T05:05:24.304Z,48.93
2023-03-03T05:06:26.940Z,48.95
2023-03-03T05:07:28.621Z,48.74
2023-03-03T05:08:31.351Z,48.36
2023-03-03T05:09:33.061Z,48.53
2023-03-03T05:10:35.989Z,48.33
2023-03-03T05:11:37.672Z,48.60
2023-03-03T05:12:40.410Z,48.01
2023-03-03T05:13:42.088Z,48.48
2023-03-03T05:14:44.732Z,48.52
2023-03-03T05:15:50.255Z,48.30
2023-03-03T05:16:53.160Z,48.80
2023-03-03T05:17:56.436Z,48.67
2023-03-03T05:19:00.525Z,48.72
2023-03-03T05:20:02.237Z,47.66
2023-03-03T05:21:05.381Z,47.94
2023-03-03T05:22:07.106Z,48.52
2023-03-03T05:23:09.784Z,47.79
2023-03-03T05:24:13.038Z,47.57
2023-03-03T05:25:16.066Z,47.56
2023-03-03T05:26:17.784Z,48.30
2023-03-03T05:27:20.661Z,47.49
2023-03-03T05:28:22.416Z,48.04
2023-03-03T05:29:25.190Z,48.34
2023-03-03T05:30:27.118Z,47.32
2023-03-03T05:31:29.876Z,47.89
2023-03-03T05:32:31.817Z,46.96
2023-03-03T05:33:34.541Z,47.86
2023-03-03T05:34:37.641Z,47.13
2023-03-03T05:35:40.376Z,47.30
2023-03-03T05:36:42.082Z,47.27
2023-03-03T05:37:47.687Z,47.81
2023-03-03T05:38:49.459Z,47.81
2023-03-03T05:39:52.114Z,46.65
2023-03-03T05:40:54.767Z,47.63
2023-03-03T05:41:57.446Z,47.27
2023-03-03T05:42:59.251Z,47.50
2023-03-03T05:44:01.928Z,47.57
2023-03-03T05:45:04.110Z,47.18
2023-03-03T05:46:06.768Z,47.06
2023-03-03T05:47:08.444Z,46.53
2023-03-03T05:48:11.244Z,47.50
2023-03-03T05:49:12.946Z,46.62
2023-03-03T05:50:17.142Z,47.02
2023-03-03T05:51:18.845Z,47.45
2023-03-03T05:52:21.856Z,47.04
2023-03-03T05:53:23.543Z,46.72
2023-03-03T05:54:26.320Z,46.54
2023-03-03T05:55:28.020Z,47.18
2023-03-03T05:56:30.686Z,47.16
2023-03-03T05:57:32.455Z,47.53
2023-03-03T05:58:35.164Z,46.87
2023-03-03T05:59:36.948Z,46.84
2023-03-03T06:00:39.627Z,46.74
2023-03-03T06:01:41.339Z,47.39
2023-03-03T06:02:44.218Z,47.60
2023-03-03T06:03:46.040Z,46.97
2023-03-03T06:04:48.759Z,46.72
2023-03-03T06:05:51.850Z,47.22
2023-03-03T06:06:54.531Z,46.96
2023-03-03T06:07:56.286Z,47.55
2023-03-03T06:08:58.950Z,47.36
2023-03-03T06:10:00.702Z,47.80
2023-03-03T06:11:03.466Z,47.75
2023-03-03T06:12:05.895Z,47.86
2023-03-03T06:13:08.786Z,47.50
2023-03-03T06:14:10.493Z,47.04
2023-03-03T06:15:13.383Z,47.49
2023-03-03T06:16:15.163Z,47.11
2023-03-03T06:17:18.091Z,47.13
2023-03-03T06:18:20.844Z,47.85
2023-03-03T06:19:22.538Z,46.84
2023-03-03T06:20:25.284Z,47.32
2023-03-03T06:21:28.450Z,48.04
2023-03-03T06:22:31.427Z,47.37
2023-03-03T06:23:33.153Z,47.83
2023-03-03T06:24:36.022Z,47.79
2023-03-03T06:25:39.466Z,47.99
2023-03-03T06:26:42.189Z,47.72
2023-03-03T06:27:43.845Z,48.23
2023-03-03T06:28:46.723Z,47.10
2023-03-03T06:29:48.441Z,47.20
2023-03-03T06:30:54.550Z,48.13
2023-03-03T06:31:56.450Z,47.93
2023-03-03T06:32:59.342Z,47.87
2023-03-03T06:34:01.087Z,47.81
2023-03-03T06:35:03.798Z,47.44
2023-03-03T06:36:06.104Z,47.81
2023-03-03T06:37:10.172Z,47.87
2023-03-03T06:38:11.913Z,47.63
2023-03-03T06:39:14.588Z,47.72
2023-03-03T06:40:16.417Z,48.50
2023-03-03T06:41:21.627Z,47.73
2023-03-03T06:42:24.887Z,48.30
2023-03-03T06:43:27.566Z,48.23
2023-03-03T06:44:30.516Z,47.71
2023-03-03T06:45:32.276Z,48.95
2023-03-03T06:46:34.957Z,48.99
2023-03-03T06:47:36.716Z,48.44
2023-03-03T06:48:40.796Z,49.33
2023-03-03T06:49:42.593Z,49.40
2023-03-03T06:50:45.233Z,49.73
2023-03-03T06:51:46.926Z,49.80
2023-03-03T06:52:50.938Z,49.96
2023-03-03T06:53:54.248Z,49.05
2023-03-03T06:54:59.376Z,49.13
2023-03-03T06:56:02.314Z,49.20
2023-03-03T06:57:15.063Z,49.73
2023-03-03T06:58:19.282Z,49.30
2023-03-03T06:59:21.994Z,50.16
2023-03-03T07:00:26.209Z,50.21
2023-03-03T07:01:31.546Z,50.18
2023-03-03T07:02:34.181Z,50.22
2023-03-03T07:03:36.153Z,49.70
2023-03-03T07:04:39.605Z,51.00
2023-03-03T07:05:41.502Z,50.87
2023-03-03T07:06:44.297Z,50.95
2023-03-03T07:07:46.192Z,50.74
2023-03-03T07:08:50.309Z,51.29
2023-03-03T07:09:53.564Z,51.39
2023-03-03T07:10:56.271Z,51.99
2023-03-03T07:12:02.115Z,51.42
2023-03-03T07:13:18.381Z,51.53
2023-03-03T07:14:20.986Z,51.73
2023-03-03T07:15:26.143Z,51.37
2023-03-03T07:16:28.511Z,51.10
2023-03-03T07:17:31.915Z,50.95
2023-03-03T07:18:39.069Z,51.64
2023-03-03T07:19:41.845Z,51.67
2023-03-03T07:20:43.564Z,51.82
2023-03-03T07:21:46.250Z,51.72
2023-03-03T07:22:48.162Z,52.21
2023-03-03T07:23:53.215Z,52.09
2023-03-03T07:24:59.181Z,52.21
2023-03-03T07:26:00.925Z,52.20
2023-03-03T07:27:13.011Z,52.12
2023-03-03T07:28:21.109Z,51.55
2023-03-03T07:29:26.676Z,51.86
2023-03-03T07:30:30.715Z,51.74
2023-03-03T07:31:36.319Z,51.29
2023-03-03T07:32:40.996Z,51.77
2023-03-03T07:33:45.007Z,51.27
2023-03-03T07:34:49.319Z,51.83
2023-03-03T07:35:52.661Z,51.82
2023-03-03T07:36:56.061Z,51.42
2023-03-03T07:37:58.960Z,51.69
2023-03-03T07:39:06.332Z,51.75
2023-03-03T07:40:30.797Z,51.52
2023-03-03T07:41:35.904Z,51.76
2023-03-03T07:42:41.102Z,51.06
2023-03-03T07:43:50.709Z,51.40
2023-03-03T07:44:54.871Z,51.28
2023-03-03T07:46:03.677Z,51.60
2023-03-03T07:47:19.034Z,51.27
2023-03-03T07:48:27.097Z,51.34
2023-03-03T07:49:35.604Z,51.48
2023-03-03T07:50:37.361Z,51.20
2023-03-03T07:51:42.201Z,51.32
2023-03-03T07:52:51.122Z,51.08
2023-03-03T07:53:53.405Z,51.14
2023-03-03T07:54:59.037Z,51.03
2023-03-03T07:56:01.539Z,50.83
2023-03-03T07:57:14.093Z,50.86
2023-03-03T07:58:23.356Z,51.14
2023-03-03T07:59:26.524Z,50.78
2023-03-03T08:01:02.800Z,51.02
2023-03-03T08:02:17.821Z,50.47
2023-03-03T08:03:20.287Z,50.29
2023-03-03T08:04:26.191Z,50.15
2023-03-03T08:05:32.209Z,50.38
2023-03-03T08:06:43.772Z,50.34
2023-03-03T08:07:46.644Z,50.15
2023-03-03T08:08:48.383Z,50.08
2023-03-03T08:09:52.804Z,50.07
2023-03-03T08:10:58.370Z,49.90
2023-03-03T08:12:07.121Z,50.01
2023-03-03T08:13:17.182Z,49.60
2023-03-03T08:14:25.795Z,49.77
2023-03-03T08:15:32.077Z,49.58
2023-03-03T08:16:37.946Z,49.51
2023-03-03T08:17:42.193Z,49.66
2023-03-03T08:18:47.859Z,49.66
2023-03-03T08:19:50.993Z,49.70
2023-03-03T08:20:56.024Z,49.56
2023-03-03T08:22:02.095Z,48.92
2023-03-03T08:23:03.864Z,49.06
2023-03-03T08:24:07.236Z,49.32
2023-03-03T08:25:09.219Z,48.96
2023-03-03T08:26:14.892Z,48.96
2023-03-03T08:27:16.622Z,49.20
2023-03-03T08:28:20.074Z,48.90
2023-03-03T08:29:22.884Z,49.19
2023-03-03T08:30:25.600Z,48.61
2023-03-03T08:31:40.649Z,48.26
2023-03-03T08:32:43.443Z,48.43
2023-03-03T08:33:46.801Z,48.41
2023-03-03T08:34:48.693Z,48.74
2023-03-03T08:35:51.526Z,48.05
2023-03-03T08:36:53.407Z,47.30
2023-03-03T08:37:56.074Z,47.49
2023-03-03T08:38:58.710Z,47.51
2023-03-03T08:40:01.497Z,47.13
2023-03-03T08:41:05.368Z,47.22
2023-03-03T08:42:08.444Z,46.44
2023-03-03T08:43:11.258Z,47.35
2023-03-03T08:44:12.973Z,47.26
2023-03-03T08:45:16.072Z,46.28
2023-03-03T08:46:19.090Z,46.79
2023-03-03T08:47:20.956Z,46.73
2023-03-03T08:48:23.638Z,46.73
2023-03-03T08:49:25.409Z,45.68
2023-03-03T08:50:28.754Z,45.81
2023-03-03T08:51:33.747Z,44.93
2023-03-03T08:52:35.589Z,45.08
2023-03-03T08:53:38.352Z,44.71
2023-03-03T08:54:40.077Z,44.68
2023-03-03T08:55:43.558Z,44.83
2023-03-03T08:56:45.292Z,45.64
2023-03-03T08:57:50.007Z,45.06
2023-03-03T08:59:02.309Z,45.27
2023-03-03T09:00:06.511Z,44.90
2023-03-03T09:01:09.162Z,44.10
2023-03-03T09:02:10.941Z,43.77
2023-03-03T09:03:13.627Z,43.70
2023-03-03T09:04:15.350Z,44.36
2023-03-03T09:05:18.766Z,43.78
2023-03-03T09:06:21.424Z,43.90
2023-03-03T09:07:23.216Z,43.31
2023-03-03T09:08:26.689Z,43.03
2023-03-03T09:09:28.580Z,43.21
2023-03-03T09:10:32.158Z,42.66
2023-03-03T09:11:35.175Z,42.72
2023-03-03T09:12:39.625Z,42.82
2023-03-03T09:13:44.139Z,42.87
2023-03-03T09:14:47.037Z,42.78
2023-03-03T09:15:50.653Z,42.03
2023-03-03T09:16:53.812Z,42.38
2023-03-03T09:17:59.382Z,42.36
2023-03-03T09:19:17.261Z,42.22
2023-03-03T09:20:25.668Z,41.70
2023-03-03T09:21:32.837Z,41.45
2023-03-03T09:22:36.883Z,41.70
2023-03-03T09:23:40.588Z,42.27
2023-03-03T09:24:42.567Z,41.86
2023-03-03T09:25:45.342Z,41.31
2023-03-03T09:26:48.860Z,41.95
2023-03-03T09:27:53.042Z,41.66
2023-03-03T09:29:00.786Z,41.47
2023-03-03T09:30:03.400Z,41.50
2023-03-03T09:31:21.919Z,41.59
2023-03-03T09:32:33.243Z,41.40
2023-03-03T09:33:41.538Z,41.04
2023-03-03T09:34:44.590Z,40.78
2023-03-03T09:35:48.669Z,40.38
2023-03-03T09:36:51.532Z,40.21
2023-03-03T09:37:54.364Z,40.62
2023-03-03T09:38:57.128Z,40.04
2023-03-03T09:39:59.895Z,40.21
2023-03-03T09:41:16.793Z,40.16
2023-03-03T09:42:42.851Z,40.33
2023-03-03T09:43:56.191Z,39.65
2023-03-03T09:45:28.087Z,40.40
2023-03-03T09:46:36.576Z,40.08
2023-03-03T09:48:00.545Z,39.95
2023-03-03T09:49:08.721Z,39.92
2023-03-03T09:50:22.512Z,39.68
2023-03-03T09:51:39.820Z,40.15
2023-03-03T09:52:51.222Z,39.83
2023-03-03T09:54:00.709Z,39.89
2023-03-03T09:55:12.259Z,39.63
2023-03-03T09:56:18.523Z,40.38
2023-03-03T09:57:25.370Z,39.94
2023-03-03T09:58:57.899Z,40.13
2023-03-03T10:00:21.442Z,40.00
2023-03-03T10:01:40.220Z,39.60
2023-03-03T10:02:58.338Z,39.49
2023-03-03T10:04:26.694Z,40.00
2023-03-03T10:05:38.495Z,39.37
2023-03-03T10:06:45.762Z,38.82
2023-03-03T10:08:00.842Z,39.17
2023-03-03T10:09:29.832Z,38.84
2023-03-03T10:10:46.461Z,39.24
2023-03-03T10:11:52.061Z,39.42
2023-03-03T10:13:03.571Z,38.95
2023-03-03T10:14:26.038Z,38.86
2023-03-03T10:15:39.347Z,38.99
2023-03-03T10:17:00.325Z,38.92
2023-03-03T10:18:05.370Z,39.08
2023-03-03T10:19:16.463Z,38.82
2023-03-03T10:20:28.134Z,39.37
2023-03-03T10:21:37.220Z,39.54
2023-03-03T10:22:45.475Z,39.52
2023-03-03T10:23:58.708Z,39.31
2023-03-03T10:25:09.020Z,39.16
2023-03-03T10:26:18.752Z,39.25
2023-03-03T10:27:35.170Z,38.89
2023-03-03T10:28:54.576Z,39.20
2023-03-03T10:30:02.489Z,39.41
2023-03-03T10:31:14.870Z,39.04
2023-03-03T10:32:38.162Z,39.25
2023-03-03T10:33:47.640Z,39.83
2023-03-03T10:35:02.379Z,39.76
2023-03-03T10:36:19.272Z,40.09
2023-03-03T10:37:25.700Z,39.66
2023-03-03T10:38:43.285Z,39.50
2023-03-03T10:39:57.635Z,39.57
2023-03-03T10:41:08.327Z,39.36
2023-03-03T10:42:28.446Z,39.50
2023-03-03T10:43:45.612Z,38.93
2023-03-03T10:45:21.455Z,39.16
2023-03-03T10:46:32.739Z,39.30
2023-03-03T10:47:47.179Z,39.31
2023-03-03T10:49:03.450Z,39.27
2023-03-03T10:50:16.273Z,39.14
2023-03-03T10:51:26.524Z,39.44
2023-03-03T10:52:33.894Z,39.42
2023-03-03T10:53:42.510Z,39.42
2023-03-03T10:55:06.362Z,38.93
2023-03-03T10:56:29.010Z,38.96
2023-03-03T10:57:35.326Z,39.33
2023-03-03T10:58:53.678Z,39.54
2023-03-03T11:00:07.132Z,39.56
2023-03-03T11:01:17.685Z,39.41
2023-03-03T11:02:23.001Z,39.47
2023-03-03T11:03:46.679Z,39.42
2023-03-03T11:05:00.214Z,39.94
2023-03-03T11:06:07.001Z,39.47
2023-03-03T11:07:14.150Z,39.75
2023-03-03T11:08:18.460Z,39.49
2023-03-03T11:09:40.839Z,39.21
2023-03-03T11:11:08.304Z,38.69
2023-03-03T11:12:22.478Z,38.49
2023-03-03T11:13:32.549Z,38.95
2023-03-03T11:14:38.689Z,38.52
2023-03-03T11:16:00.901Z,38.84
2023-03-03T11:17:07.076Z,38.67
2023-03-03T11:18:32.462Z,39.13
2023-03-03T11:19:42.163Z,38.84
2023-03-03T11:20:49.356Z,38.60
2023-03-03T11:21:58.506Z,38.58
2023-03-03T11:23:07.757Z,38.24
2023-03-03T11:24:18.708Z,37.93
2023-03-03T11:25:26.368Z,37.81
2023-03-03T11:26:37.186Z,37.67
2023-03-03T11:27:59.588Z,37.48
2023-03-03T11:29:12.637Z,37.67
2023-03-03T11:30:30.388Z,37.77
2023-03-03T11:31:38.057Z,37.96
2023-03-03T11:32:43.856Z,37.67
2023-03-03T11:33:57.107Z,37.55
2023-03-03T11:35:08.872Z,37.18
2023-03-03T11:36:14.870Z,36.84
2023-03-03T11:37:22.271Z,36.71
2023-03-03T11:38:33.591Z,36.74
2023-03-03T11:39:37.004Z,36.60
2023-03-03T11:40:48.465Z,36.02
2023-03-03T11:42:00.952Z,36.12
2023-03-03T11:43:09.186Z,36.21
2023-03-03T11:44:19.086Z,36.11
2023-03-03T11:45:25.298Z,35.78
2023-03-03T11:46:31.810Z,36.05
2023-03-03T11:47:38.671Z,36.00
2023-03-03T11:48:50.078Z,35.72
2023-03-03T11:49:55.645Z,35.73
2023-03-03T11:51:01.049Z,35.46
2023-03-03T11:52:07.825Z,35.46
2023-03-03T11:53:24.017Z,36.01
2023-03-03T11:54:28.912Z,35.81
2023-03-03T11:55:34.880Z,35.98
2023-03-03T11:56:40.836Z,35.85
2023-03-03T11:57:45.595Z,35.81
2023-03-03T11:58:52.140Z,35.33
2023-03-03T12:00:01.456Z,35.34
2023-03-03T12:01:11.419Z,35.22
2023-03-03T12:02:28.658Z,35.01
2023-03-03T12:03:35.833Z,35.21
2023-03-03T12:04:41.394Z,34.96
2023-03-03T12:05:51.668Z,34.89
2023-03-03T12:07:17.894Z,34.45
2023-03-03T12:08:38.077Z,34.68
2023-03-03T12:09:47.002Z,34.10
2023-03-03T12:10:53.008Z,34.14
2023-03-03T12:11:59.082Z,34.31
2023-03-03T12:13:04.139Z,34.63
2023-03-03T12:14:14.144Z,34.83
2023-03-03T12:15:23.416Z,34.95
2023-03-03T12:16:35.539Z,35.16
2023-03-03T12:17:50.662Z,35.11
2023-03-03T12:19:05.837Z,34.86
2023-03-03T12:20:15.969Z,35.28
2023-03-03T12:21:35.696Z,35.09
2023-03-03T12:22:42.921Z,34.46
2023-03-03T12:23:54.366Z,34.11
2023-03-03T12:25:05.554Z,34.28
2023-03-03T12:26:14.160Z,34.63
2023-03-03T12:27:23.283Z,34.23
2023-03-03T12:28:28.966Z,34.66
2023-03-03T12:29:37.180Z,35.22
2023-03-03T12:30:50.645Z,34.62
2023-03-03T12:31:56.579Z,34.46
2023-03-03T12:33:08.108Z,35.04
2023-03-03T12:34:17.469Z,35.10
2023-03-03T12:35:27.043Z,35.47
2023-03-03T12:36:38.643Z,35.09
2023-03-03T12:37:48.228Z,34.38
2023-03-03T12:38:57.220Z,34.37
2023-03-03T12:40:06.162Z,34.48
2023-03-03T12:41:12.946Z,34.39
2023-03-03T12:42:23.516Z,34.69
2023-03-03T12:43:36.405Z,34.43
2023-03-03T12:44:44.717Z,33.98
2023-03-03T12:45:55.153Z,33.71
2023-03-03T12:47:01.930Z,33.84
2023-03-03T12:48:08.980Z,33.99
2023-03-03T12:49:11.683Z,33.59
2023-03-03T12:50:27.663Z,34.01
2023-03-03T12:51:37.983Z,34.12
2023-03-03T12:52:47.973Z,33.88
2023-03-03T12:54:03.220Z,33.59
2023-03-03T12:55:12.518Z,33.35
2023-03-03T12:56:18.995Z,33.63
2023-03-03T12:57:29.709Z,33.64
2023-03-03T12:58:40.725Z,33.48
2023-03-03T12:59:49.862Z,33.47
2023-03-03T13:00:56.499Z,33.43
2023-03-03T13:02:14.895Z,33.52
2023-03-03T13:03:30.362Z,33.55
2023-03-03T13:04:38.213Z,32.97
2023-03-03T13:05:50.156Z,33.14
2023-03-03T13:06:56.458Z,33.07
2023-03-03T13:08:19.287Z,33.13
2023-03-03T13:09:30.218Z,33.11
2023-03-03T13:10:36.024Z,32.93
2023-03-03T13:11:54.736Z,31.90
2023-03-03T13:13:01.048Z,32.27
2023-03-03T13:14:11.850Z,32.19
2023-03-03T13:15:17.123Z,32.51
2023-03-03T13:16:29.148Z,32.07
2023-03-03T13:17:49.478Z,32.26
2023-03-03T13:18:56.590Z,31.97
2023-03-03T13:20:00.300Z,32.30
2023-03-03T13:21:07.908Z,32.09
2023-03-03T13:22:14.788Z,32.14
2023-03-03T13:23:33.263Z,31.94
2023-03-03T13:24:42.718Z,31.48
2023-03-03T13:25:51.738Z,31.87
2023-03-03T13:26:56.587Z,31.73
2023-03-03T13:28:02.772Z,31.80
2023-03-03T13:29:12.447Z,31.53
2023-03-03T13:30:17.838Z,31.62
2023-03-03T13:31:22.466Z,31.44
2023-03-03T13:32:31.025Z,31.38
2023-03-03T13:33:35.166Z,31.51
2023-03-03T13:34:42.888Z,31.25
2023-03-03T13:35:46.278Z,31.18
2023-03-03T13:36:54.235Z,31.19
2023-03-03T13:37:57.177Z,30.67
2023-03-03T13:39:02.459Z,31.25
2023-03-03T13:40:12.129Z,30.94
2023-03-03T13:41:18.869Z,31.14
2023-03-03T13:42:25.782Z,31.42
2023-03-03T13:43:31.095Z,31.15
2023-03-03T13:44:37.778Z,31.68
2023-03-03T13:45:48.085Z,31.20
2023-03-03T13:47:01.382Z,31.25
2023-03-03T13:48:10.239Z,31.19
2023-03-03T13:49:26.596Z,31.11
2023-03-03T13:50:31.875Z,31.04
2023-03-03T13:51:43.542Z,30.63
2023-03-03T13:52:52.848Z,30.67
2023-03-03T13:54:03.175Z,30.01
2023-03-03T13:55:20.572Z,29.62
2023-03-03T13:56:36.996Z,29.86
2023-03-03T13:57:46.458Z,30.16
2023-03-03T13:58:53.377Z,30.14
2023-03-03T14:00:01.198Z,30.00
2023-03-03T14:01:08.185Z,30.57
2023-03-03T14:02:26.092Z,30.16
2023-03-03T14:04:10.514Z,30.46
2023-03-03T14:05:15.840Z,30.22
2023-03-03T14:06:20.222Z,30.11
2023-03-03T14:07:28.749Z,30.21
2023-03-03T14:08:52.659Z,30.13
2023-03-03T14:10:02.008Z,30.27